sensor_id;sensor_type;location;lat;lon;timestamp;P1;durP1;ratioP1;P2;durP2;ratioP2
52508;SDS011;38420;53.150;6.370;2023-08-06T00:00:03;18.35;;;13.20;;
52508;SDS011;38420;53.150;6.370;2023-08-06T00:02:30;16.77;;;12.45;;
52508;SDS011;38420;53.150;6.370;2023-08-06T00:04:55;17.17;;;13.55;;
52508;SDS011;38420;53.150;6.370;2023-08-06T00:07:21;20.77;;;14.63;;
52508;SDS011;38420;53.150;6.370;2023-08-06T00:09:46;17.52;;;13.77;;
52508;SDS011;38420;53.150;6.370;2023-08-06T00:12:12;23.63;;;15.02;;
52508;SDS011;38420;53.150;6.370;2023-08-06T00:14:38;24.05;;;15.77;;
52508;SDS011;38420;53.150;6.370;2023-08-06T00:17:03;21.35;;;16.70;;
52508;SDS011;38420;53.150;6.370;2023-08-06T00:19:30;22.45;;;16.05;;
52508;SDS011;38420;53.150;6.370;2023-08-06T00:21:56;23.10;;;17.45;;
52508;SDS011;38420;53.150;6.370;2023-08-06T00:24:22;21.88;;;16.95;;
52508;SDS011;38420;53.150;6.370;2023-08-06T00:26:48;26.95;;;17.85;;
52508;SDS011;38420;53.150;6.370;2023-08-06T00:29:13;23.50;;;17.55;;
52508;SDS011;38420;53.150;6.370;2023-08-06T00:31:39;24.35;;;18.35;;
52508;SDS011;38420;53.150;6.370;2023-08-06T00:34:04;23.55;;;16.85;;
52508;SDS011;38420;53.150;6.370;2023-08-06T00:36:30;24.63;;;17.45;;
52508;SDS011;38420;53.150;6.370;2023-08-06T00:38:56;26.80;;;18.58;;
52508;SDS011;38420;53.150;6.370;2023-08-06T00:41:21;24.85;;;17.77;;
52508;SDS011;38420;53.150;6.370;2023-08-06T00:43:47;25.45;;;17.60;;
52508;SDS011;38420;53.150;6.370;2023-08-06T00:46:12;24.85;;;18.08;;
52508;SDS011;38420;53.150;6.370;2023-08-06T00:48:39;23.05;;;16.02;;
52508;SDS011;38420;53.150;6.370;2023-08-06T00:51:06;24.67;;;15.60;;
52508;SDS011;38420;53.150;6.370;2023-08-06T00:53:32;27.50;;;17.52;;
52508;SDS011;38420;53.150;6.370;2023-08-06T00:55:58;25.17;;;17.15;;
52508;SDS011;38420;53.150;6.370;2023-08-06T00:58:24;27.73;;;17.20;;
52508;SDS011;38420;53.150;6.370;2023-08-06T01:00:50;21.95;;;15.93;;
52508;SDS011;38420;53.150;6.370;2023-08-06T01:03:15;23.63;;;16.40;;
52508;SDS011;38420;53.150;6.370;2023-08-06T01:05:41;23.45;;;16.77;;
52508;SDS011;38420;53.150;6.370;2023-08-06T01:16:17;27.10;;;16.08;;
52508;SDS011;38420;53.150;6.370;2023-08-06T01:18:43;23.80;;;15.57;;
52508;SDS011;38420;53.150;6.370;2023-08-06T01:21:14;19.38;;;14.52;;
52508;SDS011;38420;53.150;6.370;2023-08-06T01:23:40;21.48;;;15.48;;
52508;SDS011;38420;53.150;6.370;2023-08-06T01:28:56;24.02;;;14.70;;
52508;SDS011;38420;53.150;6.370;2023-08-06T01:31:35;22.27;;;15.50;;
52508;SDS011;38420;53.150;6.370;2023-08-06T01:34:03;23.10;;;15.00;;
52508;SDS011;38420;53.150;6.370;2023-08-06T01:36:32;24.33;;;14.90;;
52508;SDS011;38420;53.150;6.370;2023-08-06T01:38:58;19.80;;;14.95;;
52508;SDS011;38420;53.150;6.370;2023-08-06T01:41:25;19.88;;;13.90;;
52508;SDS011;38420;53.150;6.370;2023-08-06T01:43:50;23.15;;;15.10;;
52508;SDS011;38420;53.150;6.370;2023-08-06T01:46:16;20.83;;;14.55;;
52508;SDS011;38420;53.150;6.370;2023-08-06T01:48:42;22.10;;;14.60;;
52508;SDS011;38420;53.150;6.370;2023-08-06T01:51:08;20.33;;;14.82;;
52508;SDS011;38420;53.150;6.370;2023-08-06T01:53:33;21.05;;;13.68;;
52508;SDS011;38420;53.150;6.370;2023-08-06T01:55:59;18.70;;;13.70;;
52508;SDS011;38420;53.150;6.370;2023-08-06T01:58:25;20.38;;;15.55;;
52508;SDS011;38420;53.150;6.370;2023-08-06T02:00:50;23.85;;;16.13;;
52508;SDS011;38420;53.150;6.370;2023-08-06T02:03:16;23.50;;;16.23;;
52508;SDS011;38420;53.150;6.370;2023-08-06T02:05:42;22.85;;;16.50;;
52508;SDS011;38420;53.150;6.370;2023-08-06T02:08:07;25.20;;;16.27;;
52508;SDS011;38420;53.150;6.370;2023-08-06T02:10:33;22.92;;;15.73;;
52508;SDS011;38420;53.150;6.370;2023-08-06T02:12:59;23.45;;;17.85;;
52508;SDS011;38420;53.150;6.370;2023-08-06T02:15:25;24.63;;;17.08;;
52508;SDS011;38420;53.150;6.370;2023-08-06T02:17:50;25.30;;;17.75;;
52508;SDS011;38420;53.150;6.370;2023-08-06T02:20:16;24.40;;;18.20;;
52508;SDS011;38420;53.150;6.370;2023-08-06T02:22:42;28.77;;;18.58;;
52508;SDS011;38420;53.150;6.370;2023-08-06T02:25:07;29.95;;;19.90;;
52508;SDS011;38420;53.150;6.370;2023-08-06T02:27:33;26.23;;;19.42;;
52508;SDS011;38420;53.150;6.370;2023-08-06T02:29:59;27.08;;;18.50;;
52508;SDS011;38420;53.150;6.370;2023-08-06T02:32:25;28.00;;;20.05;;
52508;SDS011;38420;53.150;6.370;2023-08-06T02:34:50;35.17;;;21.95;;
52508;SDS011;38420;53.150;6.370;2023-08-06T02:37:16;26.88;;;19.75;;
52508;SDS011;38420;53.150;6.370;2023-08-06T02:39:42;33.67;;;21.67;;
52508;SDS011;38420;53.150;6.370;2023-08-06T02:42:08;24.40;;;18.92;;
52508;SDS011;38420;53.150;6.370;2023-08-06T02:44:34;33.33;;;21.08;;
52508;SDS011;38420;53.150;6.370;2023-08-06T02:47:00;33.10;;;20.60;;
52508;SDS011;38420;53.150;6.370;2023-08-06T02:49:26;31.92;;;21.33;;
52508;SDS011;38420;53.150;6.370;2023-08-06T02:51:52;32.88;;;21.15;;
52508;SDS011;38420;53.150;6.370;2023-08-06T02:54:18;28.75;;;20.67;;
52508;SDS011;38420;53.150;6.370;2023-08-06T02:56:44;30.77;;;21.77;;
52508;SDS011;38420;53.150;6.370;2023-08-06T02:59:10;29.02;;;20.88;;
52508;SDS011;38420;53.150;6.370;2023-08-06T03:01:36;34.72;;;23.50;;
52508;SDS011;38420;53.150;6.370;2023-08-06T03:04:02;30.83;;;20.83;;
52508;SDS011;38420;53.150;6.370;2023-08-06T03:06:28;31.90;;;22.17;;
52508;SDS011;38420;53.150;6.370;2023-08-06T03:08:54;29.58;;;22.58;;
52508;SDS011;38420;53.150;6.370;2023-08-06T03:11:20;51.40;;;28.05;;
52508;SDS011;38420;53.150;6.370;2023-08-06T03:13:46;32.90;;;23.10;;
52508;SDS011;38420;53.150;6.370;2023-08-06T03:16:12;33.03;;;23.02;;
52508;SDS011;38420;53.150;6.370;2023-08-06T03:18:38;34.40;;;23.20;;
52508;SDS011;38420;53.150;6.370;2023-08-06T03:21:04;29.70;;;21.40;;
52508;SDS011;38420;53.150;6.370;2023-08-06T03:23:30;34.63;;;23.45;;
52508;SDS011;38420;53.150;6.370;2023-08-06T03:25:56;32.75;;;22.80;;
52508;SDS011;38420;53.150;6.370;2023-08-06T03:28:25;36.28;;;24.38;;
52508;SDS011;38420;53.150;6.370;2023-08-06T03:30:58;35.33;;;23.25;;
52508;SDS011;38420;53.150;6.370;2023-08-06T03:33:28;36.00;;;24.10;;
52508;SDS011;38420;53.150;6.370;2023-08-06T03:35:53;35.30;;;24.65;;
52508;SDS011;38420;53.150;6.370;2023-08-06T03:38:19;36.30;;;23.77;;
52508;SDS011;38420;53.150;6.370;2023-08-06T03:40:48;34.95;;;23.98;;
52508;SDS011;38420;53.150;6.370;2023-08-06T03:43:14;33.92;;;24.83;;
52508;SDS011;38420;53.150;6.370;2023-08-06T03:45:40;33.38;;;23.40;;
52508;SDS011;38420;53.150;6.370;2023-08-06T03:48:06;34.05;;;24.05;;
52508;SDS011;38420;53.150;6.370;2023-08-06T03:50:33;30.20;;;21.73;;
52508;SDS011;38420;53.150;6.370;2023-08-06T03:52:58;39.58;;;25.55;;
52508;SDS011;38420;53.150;6.370;2023-08-06T03:55:24;33.70;;;21.13;;
52508;SDS011;38420;53.150;6.370;2023-08-06T03:57:49;33.05;;;24.10;;
52508;SDS011;38420;53.150;6.370;2023-08-06T04:00:15;32.63;;;22.42;;
52508;SDS011;38420;53.150;6.370;2023-08-06T04:02:41;33.80;;;23.88;;
52508;SDS011;38420;53.150;6.370;2023-08-06T04:05:07;33.42;;;24.13;;
52508;SDS011;38420;53.150;6.370;2023-08-06T04:07:33;30.05;;;21.98;;
52508;SDS011;38420;53.150;6.370;2023-08-06T04:10:00;33.63;;;23.48;;
52508;SDS011;38420;53.150;6.370;2023-08-06T04:12:26;34.40;;;23.30;;
52508;SDS011;38420;53.150;6.370;2023-08-06T04:14:52;30.10;;;21.00;;
52508;SDS011;38420;53.150;6.370;2023-08-06T04:17:18;31.13;;;22.55;;
52508;SDS011;38420;53.150;6.370;2023-08-06T04:19:51;32.63;;;22.70;;
52508;SDS011;38420;53.150;6.370;2023-08-06T04:22:18;31.40;;;22.08;;
52508;SDS011;38420;53.150;6.370;2023-08-06T04:24:44;29.45;;;20.60;;
52508;SDS011;38420;53.150;6.370;2023-08-06T04:27:10;30.27;;;20.98;;
52508;SDS011;38420;53.150;6.370;2023-08-06T04:29:37;32.78;;;22.10;;
52508;SDS011;38420;53.150;6.370;2023-08-06T04:32:06;31.83;;;22.10;;
52508;SDS011;38420;53.150;6.370;2023-08-06T04:34:37;34.80;;;22.67;;
52508;SDS011;38420;53.150;6.370;2023-08-06T04:37:02;31.23;;;21.90;;
52508;SDS011;38420;53.150;6.370;2023-08-06T04:39:29;29.33;;;20.85;;
52508;SDS011;38420;53.150;6.370;2023-08-06T04:41:57;33.03;;;21.70;;
52508;SDS011;38420;53.150;6.370;2023-08-06T04:44:23;28.33;;;21.50;;
52508;SDS011;38420;53.150;6.370;2023-08-06T04:46:49;29.70;;;19.92;;
52508;SDS011;38420;53.150;6.370;2023-08-06T04:49:15;25.85;;;19.88;;
52508;SDS011;38420;53.150;6.370;2023-08-06T04:51:40;28.63;;;19.77;;
52508;SDS011;38420;53.150;6.370;2023-08-06T04:54:06;24.90;;;18.48;;
52508;SDS011;38420;53.150;6.370;2023-08-06T04:56:32;28.60;;;18.60;;
52508;SDS011;38420;53.150;6.370;2023-08-06T04:58:57;27.38;;;19.42;;
52508;SDS011;38420;53.150;6.370;2023-08-06T05:01:24;22.02;;;17.02;;
52508;SDS011;38420;53.150;6.370;2023-08-06T05:03:49;25.23;;;19.15;;
52508;SDS011;38420;53.150;6.370;2023-08-06T05:06:15;30.40;;;18.67;;
52508;SDS011;38420;53.150;6.370;2023-08-06T05:08:41;28.83;;;20.63;;
52508;SDS011;38420;53.150;6.370;2023-08-06T05:11:06;25.23;;;17.83;;
52508;SDS011;38420;53.150;6.370;2023-08-06T05:13:32;34.70;;;23.08;;
52508;SDS011;38420;53.150;6.370;2023-08-06T05:15:58;24.00;;;19.55;;
52508;SDS011;38420;53.150;6.370;2023-08-06T05:18:23;26.17;;;20.45;;
52508;SDS011;38420;53.150;6.370;2023-08-06T05:20:49;25.23;;;18.40;;
52508;SDS011;38420;53.150;6.370;2023-08-06T05:23:14;30.25;;;20.17;;
52508;SDS011;38420;53.150;6.370;2023-08-06T05:25:40;26.92;;;20.67;;
52508;SDS011;38420;53.150;6.370;2023-08-06T05:28:06;24.40;;;18.70;;
52508;SDS011;38420;53.150;6.370;2023-08-06T05:30:31;22.40;;;17.52;;
52508;SDS011;38420;53.150;6.370;2023-08-06T05:32:57;21.70;;;16.90;;
52508;SDS011;38420;53.150;6.370;2023-08-06T05:35:23;20.95;;;16.30;;
52508;SDS011;38420;53.150;6.370;2023-08-06T05:37:52;22.90;;;17.08;;
52508;SDS011;38420;53.150;6.370;2023-08-06T05:40:18;27.75;;;17.67;;
52508;SDS011;38420;53.150;6.370;2023-08-06T05:42:43;23.30;;;17.38;;
52508;SDS011;38420;53.150;6.370;2023-08-06T05:45:09;20.85;;;16.15;;
52508;SDS011;38420;53.150;6.370;2023-08-06T05:47:35;20.20;;;15.43;;
52508;SDS011;38420;53.150;6.370;2023-08-06T05:50:01;20.55;;;15.38;;
52508;SDS011;38420;53.150;6.370;2023-08-06T05:52:26;20.85;;;15.73;;
52508;SDS011;38420;53.150;6.370;2023-08-06T05:54:52;19.20;;;15.10;;
52508;SDS011;38420;53.150;6.370;2023-08-06T05:57:17;20.45;;;15.38;;
52508;SDS011;38420;53.150;6.370;2023-08-06T05:59:43;19.33;;;15.45;;
52508;SDS011;38420;53.150;6.370;2023-08-06T06:02:09;20.33;;;14.27;;
52508;SDS011;38420;53.150;6.370;2023-08-06T06:04:35;17.35;;;13.93;;
52508;SDS011;38420;53.150;6.370;2023-08-06T06:07:00;19.27;;;14.88;;
52508;SDS011;38420;53.150;6.370;2023-08-06T06:09:26;17.77;;;14.30;;
52508;SDS011;38420;53.150;6.370;2023-08-06T06:11:51;19.15;;;12.95;;
52508;SDS011;38420;53.150;6.370;2023-08-06T06:14:17;16.40;;;13.15;;
52508;SDS011;38420;53.150;6.370;2023-08-06T06:16:44;17.17;;;13.07;;
52508;SDS011;38420;53.150;6.370;2023-08-06T06:19:09;16.13;;;12.98;;
52508;SDS011;38420;53.150;6.370;2023-08-06T06:21:36;16.63;;;12.85;;
52508;SDS011;38420;53.150;6.370;2023-08-06T06:24:03;18.20;;;13.68;;
52508;SDS011;38420;53.150;6.370;2023-08-06T06:26:29;21.30;;;13.45;;
52508;SDS011;38420;53.150;6.370;2023-08-06T06:28:55;18.90;;;12.80;;
52508;SDS011;38420;53.150;6.370;2023-08-06T06:31:20;18.48;;;13.55;;
52508;SDS011;38420;53.150;6.370;2023-08-06T06:33:46;18.33;;;12.85;;
52508;SDS011;38420;53.150;6.370;2023-08-06T06:36:11;17.17;;;12.60;;
52508;SDS011;38420;53.150;6.370;2023-08-06T06:38:37;16.58;;;12.55;;
52508;SDS011;38420;53.150;6.370;2023-08-06T06:41:03;18.65;;;13.15;;
52508;SDS011;38420;53.150;6.370;2023-08-06T06:43:29;20.02;;;12.95;;
52508;SDS011;38420;53.150;6.370;2023-08-06T06:45:58;16.50;;;12.65;;
52508;SDS011;38420;53.150;6.370;2023-08-06T06:48:28;18.88;;;13.00;;
52508;SDS011;38420;53.150;6.370;2023-08-06T06:50:54;15.82;;;11.68;;
52508;SDS011;38420;53.150;6.370;2023-08-06T06:53:20;14.75;;;11.30;;
52508;SDS011;38420;53.150;6.370;2023-08-06T06:55:48;17.88;;;11.45;;
52508;SDS011;38420;53.150;6.370;2023-08-06T06:58:14;14.30;;;10.50;;
52508;SDS011;38420;53.150;6.370;2023-08-06T07:00:41;16.10;;;10.93;;
52508;SDS011;38420;53.150;6.370;2023-08-06T07:03:07;17.40;;;12.10;;
52508;SDS011;38420;53.150;6.370;2023-08-06T07:05:32;14.27;;;11.13;;
52508;SDS011;38420;53.150;6.370;2023-08-06T07:07:58;16.73;;;10.70;;
52508;SDS011;38420;53.150;6.370;2023-08-06T07:10:23;15.32;;;11.48;;
52508;SDS011;38420;53.150;6.370;2023-08-06T07:12:50;16.05;;;11.52;;
52508;SDS011;38420;53.150;6.370;2023-08-06T07:15:16;12.70;;;10.60;;
52508;SDS011;38420;53.150;6.370;2023-08-06T07:17:42;12.82;;;10.45;;
52508;SDS011;38420;53.150;6.370;2023-08-06T07:20:08;15.73;;;9.90;;
52508;SDS011;38420;53.150;6.370;2023-08-06T07:22:34;14.18;;;10.50;;
52508;SDS011;38420;53.150;6.370;2023-08-06T07:25:00;12.77;;;9.98;;
52508;SDS011;38420;53.150;6.370;2023-08-06T07:27:26;11.55;;;10.18;;
52508;SDS011;38420;53.150;6.370;2023-08-06T07:29:51;13.32;;;10.40;;
52508;SDS011;38420;53.150;6.370;2023-08-06T07:32:17;16.80;;;10.10;;
52508;SDS011;38420;53.150;6.370;2023-08-06T07:34:43;15.25;;;9.60;;
52508;SDS011;38420;53.150;6.370;2023-08-06T07:37:09;10.50;;;8.73;;
52508;SDS011;38420;53.150;6.370;2023-08-06T07:39:34;10.98;;;8.38;;
52508;SDS011;38420;53.150;6.370;2023-08-06T07:42:00;10.55;;;9.43;;
52508;SDS011;38420;53.150;6.370;2023-08-06T07:44:27;12.55;;;8.13;;
52508;SDS011;38420;53.150;6.370;2023-08-06T07:46:53;10.68;;;7.50;;
52508;SDS011;38420;53.150;6.370;2023-08-06T07:49:18;12.23;;;8.27;;
52508;SDS011;38420;53.150;6.370;2023-08-06T07:51:44;10.57;;;8.35;;
52508;SDS011;38420;53.150;6.370;2023-08-06T07:54:10;13.50;;;8.75;;
52508;SDS011;38420;53.150;6.370;2023-08-06T07:56:35;9.57;;;8.32;;
52508;SDS011;38420;53.150;6.370;2023-08-06T07:59:01;9.23;;;7.18;;
52508;SDS011;38420;53.150;6.370;2023-08-06T08:01:27;9.27;;;6.85;;
52508;SDS011;38420;53.150;6.370;2023-08-06T08:03:53;7.38;;;6.57;;
52508;SDS011;38420;53.150;6.370;2023-08-06T08:06:18;8.85;;;6.30;;
52508;SDS011;38420;53.150;6.370;2023-08-06T08:08:44;8.57;;;6.53;;
52508;SDS011;38420;53.150;6.370;2023-08-06T08:11:09;7.05;;;5.30;;
52508;SDS011;38420;53.150;6.370;2023-08-06T08:13:35;7.75;;;5.07;;
52508;SDS011;38420;53.150;6.370;2023-08-06T08:16:01;7.07;;;5.18;;
52508;SDS011;38420;53.150;6.370;2023-08-06T08:18:27;7.22;;;5.53;;
52508;SDS011;38420;53.150;6.370;2023-08-06T08:20:53;6.43;;;4.75;;
52508;SDS011;38420;53.150;6.370;2023-08-06T08:23:18;7.07;;;4.75;;
52508;SDS011;38420;53.150;6.370;2023-08-06T08:25:44;6.63;;;4.50;;
52508;SDS011;38420;53.150;6.370;2023-08-06T08:28:09;5.50;;;4.95;;
52508;SDS011;38420;53.150;6.370;2023-08-06T08:30:35;4.50;;;3.78;;
52508;SDS011;38420;53.150;6.370;2023-08-06T08:33:01;5.95;;;4.45;;
52508;SDS011;38420;53.150;6.370;2023-08-06T08:35:26;4.72;;;4.00;;
52508;SDS011;38420;53.150;6.370;2023-08-06T08:37:52;5.75;;;4.10;;
52508;SDS011;38420;53.150;6.370;2023-08-06T08:40:18;4.57;;;3.30;;
52508;SDS011;38420;53.150;6.370;2023-08-06T08:42:43;6.43;;;3.47;;
52508;SDS011;38420;53.150;6.370;2023-08-06T08:45:13;5.13;;;3.83;;
52508;SDS011;38420;53.150;6.370;2023-08-06T08:47:42;4.88;;;3.35;;
52508;SDS011;38420;53.150;6.370;2023-08-06T08:50:08;6.72;;;3.53;;
52508;SDS011;38420;53.150;6.370;2023-08-06T08:52:35;5.40;;;3.15;;
52508;SDS011;38420;53.150;6.370;2023-08-06T08:55:03;3.88;;;2.80;;
52508;SDS011;38420;53.150;6.370;2023-08-06T08:57:29;4.10;;;2.80;;
52508;SDS011;38420;53.150;6.370;2023-08-06T08:59:54;3.38;;;2.63;;
52508;SDS011;38420;53.150;6.370;2023-08-06T09:02:21;4.07;;;2.50;;
52508;SDS011;38420;53.150;6.370;2023-08-06T09:04:48;4.80;;;2.58;;
52508;SDS011;38420;53.150;6.370;2023-08-06T09:07:16;4.80;;;3.00;;
52508;SDS011;38420;53.150;6.370;2023-08-06T09:09:44;3.95;;;2.90;;
52508;SDS011;38420;53.150;6.370;2023-08-06T09:12:16;3.47;;;2.50;;
52508;SDS011;38420;53.150;6.370;2023-08-06T09:14:42;4.07;;;2.65;;
52508;SDS011;38420;53.150;6.370;2023-08-06T09:17:08;3.30;;;2.40;;
52508;SDS011;38420;53.150;6.370;2023-08-06T09:19:35;3.90;;;2.28;;
52508;SDS011;38420;53.150;6.370;2023-08-06T09:22:01;2.47;;;1.98;;
52508;SDS011;38420;53.150;6.370;2023-08-06T09:24:27;3.20;;;2.10;;
52508;SDS011;38420;53.150;6.370;2023-08-06T09:26:53;2.90;;;1.73;;
52508;SDS011;38420;53.150;6.370;2023-08-06T09:29:19;3.10;;;2.20;;
52508;SDS011;38420;53.150;6.370;2023-08-06T09:31:46;2.80;;;2.00;;
52508;SDS011;38420;53.150;6.370;2023-08-06T09:34:22;4.70;;;2.10;;
52508;SDS011;38420;53.150;6.370;2023-08-06T09:36:51;2.70;;;1.70;;
52508;SDS011;38420;53.150;6.370;2023-08-06T09:39:22;2.65;;;1.80;;
52508;SDS011;38420;53.150;6.370;2023-08-06T09:41:57;3.88;;;2.20;;
52508;SDS011;38420;53.150;6.370;2023-08-06T09:44:24;8.80;;;3.45;;
52508;SDS011;38420;53.150;6.370;2023-08-06T09:46:52;3.53;;;2.50;;
52508;SDS011;38420;53.150;6.370;2023-08-06T09:49:25;3.03;;;2.72;;
52508;SDS011;38420;53.150;6.370;2023-08-06T09:51:57;4.00;;;2.38;;
52508;SDS011;38420;53.150;6.370;2023-08-06T09:54:25;3.53;;;2.55;;
52508;SDS011;38420;53.150;6.370;2023-08-06T09:56:52;6.18;;;2.33;;
52508;SDS011;38420;53.150;6.370;2023-08-06T09:59:19;4.40;;;2.55;;
52508;SDS011;38420;53.150;6.370;2023-08-06T10:01:45;4.15;;;2.58;;
52508;SDS011;38420;53.150;6.370;2023-08-06T10:04:11;2.90;;;2.22;;
52508;SDS011;38420;53.150;6.370;2023-08-06T10:06:41;3.72;;;2.53;;
52508;SDS011;38420;53.150;6.370;2023-08-06T10:09:08;3.70;;;2.53;;
52508;SDS011;38420;53.150;6.370;2023-08-06T10:11:35;3.50;;;2.30;;
52508;SDS011;38420;53.150;6.370;2023-08-06T10:14:09;4.10;;;1.98;;
52508;SDS011;38420;53.150;6.370;2023-08-06T10:16:39;3.33;;;2.50;;
52508;SDS011;38420;53.150;6.370;2023-08-06T10:19:07;4.10;;;2.10;;
52508;SDS011;38420;53.150;6.370;2023-08-06T10:21:35;2.67;;;1.83;;
52508;SDS011;38420;53.150;6.370;2023-08-06T10:24:00;4.53;;;1.88;;
52508;SDS011;38420;53.150;6.370;2023-08-06T10:26:29;3.13;;;2.20;;
52508;SDS011;38420;53.150;6.370;2023-08-06T10:28:55;3.72;;;1.85;;
52508;SDS011;38420;53.150;6.370;2023-08-06T10:32:04;5.93;;;2.50;;
52508;SDS011;38420;53.150;6.370;2023-08-06T10:35:00;2.88;;;1.90;;
52508;SDS011;38420;53.150;6.370;2023-08-06T10:37:35;2.47;;;1.70;;
52508;SDS011;38420;53.150;6.370;2023-08-06T10:40:01;2.70;;;1.70;;
52508;SDS011;38420;53.150;6.370;2023-08-06T10:42:27;3.13;;;1.80;;
52508;SDS011;38420;53.150;6.370;2023-08-06T10:45:13;2.72;;;2.15;;
52508;SDS011;38420;53.150;6.370;2023-08-06T10:47:41;2.70;;;1.80;;
52508;SDS011;38420;53.150;6.370;2023-08-06T10:50:07;3.50;;;1.88;;
52508;SDS011;38420;53.150;6.370;2023-08-06T10:52:35;4.78;;;2.17;;
52508;SDS011;38420;53.150;6.370;2023-08-06T10:55:01;6.03;;;2.45;;
52508;SDS011;38420;53.150;6.370;2023-08-06T10:57:27;4.35;;;2.70;;
52508;SDS011;38420;53.150;6.370;2023-08-06T10:59:52;4.40;;;2.30;;
52508;SDS011;38420;53.150;6.370;2023-08-06T11:02:18;5.72;;;2.50;;
52508;SDS011;38420;53.150;6.370;2023-08-06T11:04:43;5.22;;;2.33;;
52508;SDS011;38420;53.150;6.370;2023-08-06T11:07:09;2.22;;;2.00;;
52508;SDS011;38420;53.150;6.370;2023-08-06T11:09:35;3.83;;;2.50;;
52508;SDS011;38420;53.150;6.370;2023-08-06T11:12:02;3.75;;;2.30;;
52508;SDS011;38420;53.150;6.370;2023-08-06T11:14:31;2.28;;;1.67;;
52508;SDS011;38420;53.150;6.370;2023-08-06T11:16:57;2.75;;;1.77;;
52508;SDS011;38420;53.150;6.370;2023-08-06T11:19:23;3.03;;;2.10;;
52508;SDS011;38420;53.150;6.370;2023-08-06T11:21:51;5.78;;;2.30;;
52508;SDS011;38420;53.150;6.370;2023-08-06T11:24:16;3.85;;;2.03;;
52508;SDS011;38420;53.150;6.370;2023-08-06T11:26:42;6.38;;;2.13;;
52508;SDS011;38420;53.150;6.370;2023-08-06T11:29:09;3.33;;;2.40;;
52508;SDS011;38420;53.150;6.370;2023-08-06T11:31:35;2.28;;;1.92;;
52508;SDS011;38420;53.150;6.370;2023-08-06T11:34:01;3.08;;;1.77;;
52508;SDS011;38420;53.150;6.370;2023-08-06T11:36:34;5.80;;;2.53;;
52508;SDS011;38420;53.150;6.370;2023-08-06T11:39:05;2.72;;;1.70;;
52508;SDS011;38420;53.150;6.370;2023-08-06T11:41:31;4.57;;;2.08;;
52508;SDS011;38420;53.150;6.370;2023-08-06T11:43:58;2.70;;;2.00;;
52508;SDS011;38420;53.150;6.370;2023-08-06T11:46:24;3.90;;;2.00;;
52508;SDS011;38420;53.150;6.370;2023-08-06T11:48:54;2.42;;;2.00;;
52508;SDS011;38420;53.150;6.370;2023-08-06T11:51:23;2.38;;;1.90;;
52508;SDS011;38420;53.150;6.370;2023-08-06T11:53:56;4.28;;;2.22;;
52508;SDS011;38420;53.150;6.370;2023-08-06T11:56:22;3.13;;;2.13;;
52508;SDS011;38420;53.150;6.370;2023-08-06T11:58:49;3.00;;;2.05;;
52508;SDS011;38420;53.150;6.370;2023-08-06T12:01:14;2.28;;;1.90;;
52508;SDS011;38420;53.150;6.370;2023-08-06T12:03:40;3.95;;;1.80;;
52508;SDS011;38420;53.150;6.370;2023-08-06T12:06:06;7.32;;;2.92;;
52508;SDS011;38420;53.150;6.370;2023-08-06T12:08:34;2.92;;;1.80;;
52508;SDS011;38420;53.150;6.370;2023-08-06T12:11:00;4.18;;;2.28;;
52508;SDS011;38420;53.150;6.370;2023-08-06T12:13:26;3.55;;;1.90;;
52508;SDS011;38420;53.150;6.370;2023-08-06T12:15:53;3.15;;;2.53;;
52508;SDS011;38420;53.150;6.370;2023-08-06T12:18:19;3.30;;;1.80;;
52508;SDS011;38420;53.150;6.370;2023-08-06T12:20:45;2.20;;;1.88;;
52508;SDS011;38420;53.150;6.370;2023-08-06T12:23:11;5.25;;;2.30;;
52508;SDS011;38420;53.150;6.370;2023-08-06T12:25:40;4.55;;;2.25;;
52508;SDS011;38420;53.150;6.370;2023-08-06T12:28:06;2.70;;;1.85;;
52508;SDS011;38420;53.150;6.370;2023-08-06T12:30:33;2.90;;;1.95;;
52508;SDS011;38420;53.150;6.370;2023-08-06T12:32:59;3.78;;;2.38;;
52508;SDS011;38420;53.150;6.370;2023-08-06T12:35:24;3.15;;;1.80;;
52508;SDS011;38420;53.150;6.370;2023-08-06T12:37:50;4.18;;;2.30;;
52508;SDS011;38420;53.150;6.370;2023-08-06T12:40:19;5.10;;;2.17;;
52508;SDS011;38420;53.150;6.370;2023-08-06T12:42:45;2.38;;;1.90;;
52508;SDS011;38420;53.150;6.370;2023-08-06T12:45:11;4.57;;;2.15;;
52508;SDS011;38420;53.150;6.370;2023-08-06T12:47:37;4.03;;;2.30;;
52508;SDS011;38420;53.150;6.370;2023-08-06T12:50:03;3.78;;;2.13;;
52508;SDS011;38420;53.150;6.370;2023-08-06T12:52:29;4.10;;;2.10;;
52508;SDS011;38420;53.150;6.370;2023-08-06T12:54:54;3.80;;;2.20;;
52508;SDS011;38420;53.150;6.370;2023-08-06T12:57:20;3.92;;;2.10;;
52508;SDS011;38420;53.150;6.370;2023-08-06T12:59:46;3.67;;;2.00;;
52508;SDS011;38420;53.150;6.370;2023-08-06T13:02:11;3.65;;;2.15;;
52508;SDS011;38420;53.150;6.370;2023-08-06T13:04:37;3.53;;;1.83;;
52508;SDS011;38420;53.150;6.370;2023-08-06T13:07:02;3.28;;;2.28;;
52508;SDS011;38420;53.150;6.370;2023-08-06T13:09:28;3.35;;;2.20;;
52508;SDS011;38420;53.150;6.370;2023-08-06T13:11:54;2.97;;;2.25;;
52508;SDS011;38420;53.150;6.370;2023-08-06T13:14:20;5.28;;;2.10;;
52508;SDS011;38420;53.150;6.370;2023-08-06T13:16:46;3.05;;;1.92;;
52508;SDS011;38420;53.150;6.370;2023-08-06T13:19:12;4.40;;;1.90;;
52508;SDS011;38420;53.150;6.370;2023-08-06T13:24:05;2.80;;;2.00;;
52508;SDS011;38420;53.150;6.370;2023-08-06T13:26:32;2.42;;;1.92;;
52508;SDS011;38420;53.150;6.370;2023-08-06T13:28:58;2.28;;;1.98;;
52508;SDS011;38420;53.150;6.370;2023-08-06T13:31:25;3.50;;;2.05;;
52508;SDS011;38420;53.150;6.370;2023-08-06T13:33:51;4.28;;;2.15;;
52508;SDS011;38420;53.150;6.370;2023-08-06T13:36:19;3.95;;;2.03;;
52508;SDS011;38420;53.150;6.370;2023-08-06T13:38:44;4.97;;;2.20;;
52508;SDS011;38420;53.150;6.370;2023-08-06T13:41:10;2.83;;;2.25;;
52508;SDS011;38420;53.150;6.370;2023-08-06T13:43:36;2.83;;;2.30;;
52508;SDS011;38420;53.150;6.370;2023-08-06T13:46:02;2.53;;;1.90;;
52508;SDS011;38420;53.150;6.370;2023-08-06T13:48:27;3.33;;;2.35;;
52508;SDS011;38420;53.150;6.370;2023-08-06T13:50:53;4.60;;;2.08;;
52508;SDS011;38420;53.150;6.370;2023-08-06T13:53:18;2.38;;;1.73;;
52508;SDS011;38420;53.150;6.370;2023-08-06T13:55:44;3.15;;;1.80;;
52508;SDS011;38420;53.150;6.370;2023-08-06T13:58:10;3.78;;;1.92;;
52508;SDS011;38420;53.150;6.370;2023-08-06T14:00:36;3.10;;;1.70;;
52508;SDS011;38420;53.150;6.370;2023-08-06T14:03:01;2.88;;;1.67;;
52508;SDS011;38420;53.150;6.370;2023-08-06T14:05:27;2.95;;;1.80;;
52508;SDS011;38420;53.150;6.370;2023-08-06T14:07:53;2.42;;;1.90;;
52508;SDS011;38420;53.150;6.370;2023-08-06T14:10:19;2.45;;;1.90;;
52508;SDS011;38420;53.150;6.370;2023-08-06T14:12:44;3.25;;;2.20;;
52508;SDS011;38420;53.150;6.370;2023-08-06T14:15:10;3.10;;;1.90;;
52508;SDS011;38420;53.150;6.370;2023-08-06T14:17:36;2.33;;;1.90;;
52508;SDS011;38420;53.150;6.370;2023-08-06T14:20:03;2.67;;;1.70;;
52508;SDS011;38420;53.150;6.370;2023-08-06T14:22:29;3.72;;;1.70;;
52508;SDS011;38420;53.150;6.370;2023-08-06T14:24:56;3.50;;;2.10;;
52508;SDS011;38420;53.150;6.370;2023-08-06T14:27:23;3.47;;;2.10;;
52508;SDS011;38420;53.150;6.370;2023-08-06T14:29:48;3.78;;;2.15;;
52508;SDS011;38420;53.150;6.370;2023-08-06T14:32:14;4.50;;;1.92;;
52508;SDS011;38420;53.150;6.370;2023-08-06T14:34:42;3.20;;;2.20;;
52508;SDS011;38420;53.150;6.370;2023-08-06T14:37:09;5.57;;;2.40;;
52508;SDS011;38420;53.150;6.370;2023-08-06T14:39:35;3.65;;;2.00;;
52508;SDS011;38420;53.150;6.370;2023-08-06T14:42:00;3.20;;;1.95;;